sensor_id;sensor_type;location;lat;lon;timestamp;P1;durP1;ratioP1;P2;durP2;ratioP2
16242;SDS011;11719;51.052;6.982;2023-02-11T00:00:53;9.20;;;5.43;;
16242;SDS011;11719;51.052;6.982;2023-02-11T00:03:19;7.93;;;4.47;;
16242;SDS011;11719;51.052;6.982;2023-02-11T00:05:44;12.83;;;5.73;;
16242;SDS011;11719;51.052;6.982;2023-02-11T00:08:10;8.83;;;4.80;;
16242;SDS011;11719;51.052;6.982;2023-02-11T00:10:41;10.07;;;5.23;;
16242;SDS011;11719;51.052;6.982;2023-02-11T00:13:06;9.30;;;5.03;;
16242;SDS011;11719;51.052;6.982;2023-02-11T00:15:32;8.40;;;4.97;;
16242;SDS011;11719;51.052;6.982;2023-02-11T00:17:58;10.50;;;5.30;;
16242;SDS011;11719;51.052;6.982;2023-02-11T00:20:24;9.53;;;4.67;;
16242;SDS011;11719;51.052;6.982;2023-02-11T00:22:49;9.70;;;4.90;;
16242;SDS011;11719;51.052;6.982;2023-02-11T00:25:15;11.33;;;5.57;;
16242;SDS011;11719;51.052;6.982;2023-02-11T00:27:41;14.40;;;5.03;;
16242;SDS011;11719;51.052;6.982;2023-02-11T00:30:07;11.57;;;5.63;;
16242;SDS011;11719;51.052;6.982;2023-02-11T00:32:34;13.70;;;5.47;;
16242;SDS011;11719;51.052;6.982;2023-02-11T00:35:01;8.07;;;4.47;;
16242;SDS011;11719;51.052;6.982;2023-02-11T00:37:26;8.97;;;3.97;;
16242;SDS011;11719;51.052;6.982;2023-02-11T00:39:53;9.23;;;4.97;;
16242;SDS011;11719;51.052;6.982;2023-02-11T00:42:19;12.43;;;5.77;;
16242;SDS011;11719;51.052;6.982;2023-02-11T00:44:44;7.47;;;4.33;;
16242;SDS011;11719;51.052;6.982;2023-02-11T00:47:10;6.53;;;3.90;;
16242;SDS011;11719;51.052;6.982;2023-02-11T00:49:36;8.60;;;4.50;;
16242;SDS011;11719;51.052;6.982;2023-02-11T00:52:04;14.00;;;4.93;;
16242;SDS011;11719;51.052;6.982;2023-02-11T00:54:30;7.87;;;4.37;;
16242;SDS011;11719;51.052;6.982;2023-02-11T00:56:55;8.47;;;4.30;;
16242;SDS011;11719;51.052;6.982;2023-02-11T00:59:21;6.73;;;3.67;;
16242;SDS011;11719;51.052;6.982;2023-02-11T01:01:47;8.10;;;4.13;;
16242;SDS011;11719;51.052;6.982;2023-02-11T01:04:13;9.27;;;4.57;;
16242;SDS011;11719;51.052;6.982;2023-02-11T01:06:38;7.93;;;4.17;;
16242;SDS011;11719;51.052;6.982;2023-02-11T01:09:04;12.07;;;5.20;;
16242;SDS011;11719;51.052;6.982;2023-02-11T01:11:30;8.90;;;4.73;;
16242;SDS011;11719;51.052;6.982;2023-02-11T01:13:56;6.00;;;4.03;;
16242;SDS011;11719;51.052;6.982;2023-02-11T01:16:21;7.33;;;4.37;;
16242;SDS011;11719;51.052;6.982;2023-02-11T01:18:47;8.20;;;3.77;;
16242;SDS011;11719;51.052;6.982;2023-02-11T01:21:13;7.37;;;3.90;;
16242;SDS011;11719;51.052;6.982;2023-02-11T01:23:40;8.37;;;4.00;;
16242;SDS011;11719;51.052;6.982;2023-02-11T01:26:06;7.47;;;4.73;;
16242;SDS011;11719;51.052;6.982;2023-02-11T01:28:32;13.23;;;5.53;;
16242;SDS011;11719;51.052;6.982;2023-02-11T01:30:58;6.77;;;4.57;;
16242;SDS011;11719;51.052;6.982;2023-02-11T01:33:26;8.57;;;4.43;;
16242;SDS011;11719;51.052;6.982;2023-02-11T01:35:53;7.37;;;4.07;;
16242;SDS011;11719;51.052;6.982;2023-02-11T01:38:20;8.87;;;4.30;;
16242;SDS011;11719;51.052;6.982;2023-02-11T01:40:50;8.70;;;4.07;;
16242;SDS011;11719;51.052;6.982;2023-02-11T01:43:23;6.83;;;3.97;;
16242;SDS011;11719;51.052;6.982;2023-02-11T01:45:52;10.73;;;4.90;;
16242;SDS011;11719;51.052;6.982;2023-02-11T01:48:30;6.90;;;4.07;;
16242;SDS011;11719;51.052;6.982;2023-02-11T01:51:13;11.57;;;4.13;;
16242;SDS011;11719;51.052;6.982;2023-02-11T01:53:52;7.07;;;4.30;;
16242;SDS011;11719;51.052;6.982;2023-02-11T01:56:38;10.07;;;4.37;;
16242;SDS011;11719;51.052;6.982;2023-02-11T01:59:29;11.93;;;4.63;;
16242;SDS011;11719;51.052;6.982;2023-02-11T02:02:07;6.33;;;4.03;;
16242;SDS011;11719;51.052;6.982;2023-02-11T02:04:42;9.53;;;4.50;;
16242;SDS011;11719;51.052;6.982;2023-02-11T02:07:24;10.43;;;4.60;;
16242;SDS011;11719;51.052;6.982;2023-02-11T02:10:18;9.13;;;5.27;;
16242;SDS011;11719;51.052;6.982;2023-02-11T02:12:47;11.17;;;4.33;;
16242;SDS011;11719;51.052;6.982;2023-02-11T02:15:26;8.33;;;4.20;;
16242;SDS011;11719;51.052;6.982;2023-02-11T02:35:52;8.23;;;4.33;;
16242;SDS011;11719;51.052;6.982;2023-02-11T02:38:45;9.43;;;4.10;;
16242;SDS011;11719;51.052;6.982;2023-02-11T02:41:22;10.57;;;4.87;;
16242;SDS011;11719;51.052;6.982;2023-02-11T02:43:53;10.23;;;4.43;;
16242;SDS011;11719;51.052;6.982;2023-02-11T02:46:21;8.50;;;4.73;;
16242;SDS011;11719;51.052;6.982;2023-02-11T02:48:53;9.97;;;4.17;;
16242;SDS011;11719;51.052;6.982;2023-02-11T03:10:50;9.10;;;5.17;;
16242;SDS011;11719;51.052;6.982;2023-02-11T03:13:20;9.10;;;4.70;;
16242;SDS011;11719;51.052;6.982;2023-02-11T03:15:52;7.40;;;4.10;;
16242;SDS011;11719;51.052;6.982;2023-02-11T03:18:21;8.77;;;4.37;;
16242;SDS011;11719;51.052;6.982;2023-02-11T03:20:51;10.10;;;5.13;;
16242;SDS011;11719;51.052;6.982;2023-02-11T03:23:39;11.33;;;5.30;;
16242;SDS011;11719;51.052;6.982;2023-02-11T03:26:24;9.53;;;4.33;;
16242;SDS011;11719;51.052;6.982;2023-02-11T03:29:04;8.70;;;4.33;;
16242;SDS011;11719;51.052;6.982;2023-02-11T03:31:55;8.93;;;4.03;;
16242;SDS011;11719;51.052;6.982;2023-02-11T03:34:49;9.47;;;4.63;;
16242;SDS011;11719;51.052;6.982;2023-02-11T03:37:44;8.83;;;4.87;;
16242;SDS011;11719;51.052;6.982;2023-02-11T03:40:26;10.10;;;4.77;;
16242;SDS011;11719;51.052;6.982;2023-02-11T03:43:39;10.07;;;5.47;;
16242;SDS011;11719;51.052;6.982;2023-02-11T03:45:50;8.50;;;4.90;;
16242;SDS011;11719;51.052;6.982;2023-02-11T03:50:56;9.70;;;5.03;;
16242;SDS011;11719;51.052;6.982;2023-02-11T03:53:26;14.37;;;4.67;;
16242;SDS011;11719;51.052;6.982;2023-02-11T03:55:53;5.83;;;3.27;;
16242;SDS011;11719;51.052;6.982;2023-02-11T03:58:21;14.03;;;5.30;;
16242;SDS011;11719;51.052;6.982;2023-02-11T04:00:47;9.23;;;5.20;;
16242;SDS011;11719;51.052;6.982;2023-02-11T04:03:12;10.30;;;4.67;;
16242;SDS011;11719;51.052;6.982;2023-02-11T04:05:38;8.67;;;3.93;;
16242;SDS011;11719;51.052;6.982;2023-02-11T04:08:04;11.17;;;5.00;;
16242;SDS011;11719;51.052;6.982;2023-02-11T04:10:30;7.43;;;3.10;;
16242;SDS011;11719;51.052;6.982;2023-02-11T04:12:56;10.03;;;5.43;;
16242;SDS011;11719;51.052;6.982;2023-02-11T04:15:22;10.40;;;4.50;;
16242;SDS011;11719;51.052;6.982;2023-02-11T04:17:48;13.67;;;5.63;;
16242;SDS011;11719;51.052;6.982;2023-02-11T04:20:14;14.77;;;5.50;;
16242;SDS011;11719;51.052;6.982;2023-02-11T04:22:40;12.73;;;5.33;;
16242;SDS011;11719;51.052;6.982;2023-02-11T04:25:06;10.23;;;4.97;;
16242;SDS011;11719;51.052;6.982;2023-02-11T04:27:33;9.17;;;4.97;;
16242;SDS011;11719;51.052;6.982;2023-02-11T04:29:59;12.53;;;5.53;;
16242;SDS011;11719;51.052;6.982;2023-02-11T04:32:25;9.17;;;4.87;;
16242;SDS011;11719;51.052;6.982;2023-02-11T04:34:51;8.00;;;4.47;;
16242;SDS011;11719;51.052;6.982;2023-02-11T04:37:18;8.80;;;4.53;;
16242;SDS011;11719;51.052;6.982;2023-02-11T04:39:45;9.87;;;5.17;;
16242;SDS011;11719;51.052;6.982;2023-02-11T04:42:10;10.63;;;5.07;;
16242;SDS011;11719;51.052;6.982;2023-02-11T04:44:36;10.03;;;3.80;;
16242;SDS011;11719;51.052;6.982;2023-02-11T04:47:02;12.83;;;4.70;;
16242;SDS011;11719;51.052;6.982;2023-02-11T04:49:28;8.70;;;4.07;;
16242;SDS011;11719;51.052;6.982;2023-02-11T04:51:54;10.27;;;4.43;;
16242;SDS011;11719;51.052;6.982;2023-02-11T04:54:20;6.97;;;4.17;;
16242;SDS011;11719;51.052;6.982;2023-02-11T04:56:46;14.63;;;5.03;;
16242;SDS011;11719;51.052;6.982;2023-02-11T04:59:12;9.17;;;4.03;;
16242;SDS011;11719;51.052;6.982;2023-02-11T05:01:38;12.67;;;5.40;;
16242;SDS011;11719;51.052;6.982;2023-02-11T05:04:04;9.17;;;4.00;;
16242;SDS011;11719;51.052;6.982;2023-02-11T05:06:30;8.33;;;4.57;;
16242;SDS011;11719;51.052;6.982;2023-02-11T05:08:56;8.77;;;5.27;;
16242;SDS011;11719;51.052;6.982;2023-02-11T05:11:22;7.77;;;4.33;;
16242;SDS011;11719;51.052;6.982;2023-02-11T05:13:49;10.70;;;4.87;;
16242;SDS011;11719;51.052;6.982;2023-02-11T05:21:26;15.10;;;4.57;;
16242;SDS011;11719;51.052;6.982;2023-02-11T05:23:52;11.67;;;5.07;;
16242;SDS011;11719;51.052;6.982;2023-02-11T05:26:18;10.00;;;3.87;;
16242;SDS011;11719;51.052;6.982;2023-02-11T05:28:44;8.50;;;4.67;;
16242;SDS011;11719;51.052;6.982;2023-02-11T05:31:10;6.57;;;4.23;;
16242;SDS011;11719;51.052;6.982;2023-02-11T05:33:38;10.13;;;4.13;;
16242;SDS011;11719;51.052;6.982;2023-02-11T05:36:05;8.13;;;4.70;;
16242;SDS011;11719;51.052;6.982;2023-02-11T05:38:34;8.53;;;3.87;;
16242;SDS011;11719;51.052;6.982;2023-02-11T05:41:01;10.07;;;4.83;;
16242;SDS011;11719;51.052;6.982;2023-02-11T05:43:27;8.83;;;4.97;;
16242;SDS011;11719;51.052;6.982;2023-02-11T05:45:53;8.57;;;4.27;;
16242;SDS011;11719;51.052;6.982;2023-02-11T05:48:19;8.10;;;3.70;;
16242;SDS011;11719;51.052;6.982;2023-02-11T05:50:45;8.13;;;3.60;;
16242;SDS011;11719;51.052;6.982;2023-02-11T05:53:11;11.00;;;4.80;;
16242;SDS011;11719;51.052;6.982;2023-02-11T05:55:36;7.37;;;2.80;;
16242;SDS011;11719;51.052;6.982;2023-02-11T05:58:03;9.37;;;4.53;;
16242;SDS011;11719;51.052;6.982;2023-02-11T06:00:30;8.50;;;4.33;;
16242;SDS011;11719;51.052;6.982;2023-02-11T06:02:56;8.67;;;3.90;;
16242;SDS011;11719;51.052;6.982;2023-02-11T06:05:22;10.23;;;4.43;;
16242;SDS011;11719;51.052;6.982;2023-02-11T06:07:49;13.77;;;3.97;;
16242;SDS011;11719;51.052;6.982;2023-02-11T06:10:15;7.87;;;4.43;;
16242;SDS011;11719;51.052;6.982;2023-02-11T06:12:40;8.27;;;3.83;;
16242;SDS011;11719;51.052;6.982;2023-02-11T06:15:06;8.20;;;3.20;;
16242;SDS011;11719;51.052;6.982;2023-02-11T06:17:32;12.83;;;4.23;;
16242;SDS011;11719;51.052;6.982;2023-02-11T06:20:02;8.40;;;4.40;;
16242;SDS011;11719;51.052;6.982;2023-02-11T06:22:31;9.53;;;4.43;;
16242;SDS011;11719;51.052;6.982;2023-02-11T06:24:56;10.40;;;4.47;;
16242;SDS011;11719;51.052;6.982;2023-02-11T06:27:22;12.83;;;4.10;;
16242;SDS011;11719;51.052;6.982;2023-02-11T06:29:48;6.20;;;3.17;;
16242;SDS011;11719;51.052;6.982;2023-02-11T06:32:16;7.90;;;4.17;;
16242;SDS011;11719;51.052;6.982;2023-02-11T06:34:42;6.00;;;3.80;;
16242;SDS011;11719;51.052;6.982;2023-02-11T06:37:08;6.50;;;3.33;;
16242;SDS011;11719;51.052;6.982;2023-02-11T06:39:33;7.47;;;3.73;;
16242;SDS011;11719;51.052;6.982;2023-02-11T06:41:59;6.93;;;3.83;;
16242;SDS011;11719;51.052;6.982;2023-02-11T06:44:25;6.17;;;3.60;;
16242;SDS011;11719;51.052;6.982;2023-02-11T06:46:50;7.03;;;4.33;;
16242;SDS011;11719;51.052;6.982;2023-02-11T06:49:16;8.73;;;3.93;;
16242;SDS011;11719;51.052;6.982;2023-02-11T06:51:42;8.80;;;3.73;;
16242;SDS011;11719;51.052;6.982;2023-02-11T06:54:08;9.60;;;4.60;;
16242;SDS011;11719;51.052;6.982;2023-02-11T06:56:35;9.73;;;4.20;;
16242;SDS011;11719;51.052;6.982;2023-02-11T06:59:05;8.77;;;4.10;;
16242;SDS011;11719;51.052;6.982;2023-02-11T07:01:31;9.00;;;3.87;;
16242;SDS011;11719;51.052;6.982;2023-02-11T07:03:57;10.17;;;4.03;;
16242;SDS011;11719;51.052;6.982;2023-02-11T07:06:23;10.77;;;4.23;;
16242;SDS011;11719;51.052;6.982;2023-02-11T07:08:51;6.07;;;3.43;;
16242;SDS011;11719;51.052;6.982;2023-02-11T07:11:20;8.23;;;4.10;;
16242;SDS011;11719;51.052;6.982;2023-02-11T07:13:52;9.63;;;5.37;;
16242;SDS011;11719;51.052;6.982;2023-02-11T07:16:23;9.03;;;4.33;;
16242;SDS011;11719;51.052;6.982;2023-02-11T07:18:49;10.53;;;4.83;;
16242;SDS011;11719;51.052;6.982;2023-02-11T07:21:15;9.27;;;4.63;;
16242;SDS011;11719;51.052;6.982;2023-02-11T07:23:44;9.20;;;4.67;;
16242;SDS011;11719;51.052;6.982;2023-02-11T07:26:13;9.43;;;4.67;;
16242;SDS011;11719;51.052;6.982;2023-02-11T07:28:41;11.43;;;4.73;;
16242;SDS011;11719;51.052;6.982;2023-02-11T07:31:09;9.57;;;4.87;;
16242;SDS011;11719;51.052;6.982;2023-02-11T07:33:41;12.93;;;4.60;;
16242;SDS011;11719;51.052;6.982;2023-02-11T07:36:10;10.07;;;4.17;;
16242;SDS011;11719;51.052;6.982;2023-02-11T07:38:37;12.03;;;4.90;;
16242;SDS011;11719;51.052;6.982;2023-02-11T07:41:04;10.57;;;4.90;;
16242;SDS011;11719;51.052;6.982;2023-02-11T07:43:33;13.03;;;5.43;;
16242;SDS011;11719;51.052;6.982;2023-02-11T07:46:04;11.03;;;4.60;;
16242;SDS011;11719;51.052;6.982;2023-02-11T07:48:31;11.17;;;5.47;;
16242;SDS011;11719;51.052;6.982;2023-02-11T07:51:04;6.90;;;4.20;;
16242;SDS011;11719;51.052;6.982;2023-02-11T07:53:44;10.23;;;4.07;;
16242;SDS011;11719;51.052;6.982;2023-02-11T07:56:10;11.40;;;4.70;;
16242;SDS011;11719;51.052;6.982;2023-02-11T07:58:37;9.70;;;5.33;;
16242;SDS011;11719;51.052;6.982;2023-02-11T08:01:06;11.83;;;4.10;;
16242;SDS011;11719;51.052;6.982;2023-02-11T08:03:39;11.33;;;5.20;;
16242;SDS011;11719;51.052;6.982;2023-02-11T08:06:07;8.60;;;3.63;;
16242;SDS011;11719;51.052;6.982;2023-02-11T08:08:41;6.87;;;4.10;;
16242;SDS011;11719;51.052;6.982;2023-02-11T08:11:08;15.17;;;4.73;;
16242;SDS011;11719;51.052;6.982;2023-02-11T08:13:40;15.57;;;5.03;;
16242;SDS011;11719;51.052;6.982;2023-02-11T08:16:07;10.73;;;4.87;;
16242;SDS011;11719;51.052;6.982;2023-02-11T08:18:33;10.23;;;4.87;;
16242;SDS011;11719;51.052;6.982;2023-02-11T08:21:06;8.93;;;4.47;;
16242;SDS011;11719;51.052;6.982;2023-02-11T08:23:40;10.97;;;5.07;;
16242;SDS011;11719;51.052;6.982;2023-02-11T08:26:17;6.90;;;3.10;;
16242;SDS011;11719;51.052;6.982;2023-02-11T08:28:46;8.10;;;4.67;;
16242;SDS011;11719;51.052;6.982;2023-02-11T08:31:18;10.97;;;4.03;;
16242;SDS011;11719;51.052;6.982;2023-02-11T08:33:49;10.33;;;5.00;;
16242;SDS011;11719;51.052;6.982;2023-02-11T08:36:18;10.47;;;3.93;;
16242;SDS011;11719;51.052;6.982;2023-02-11T08:38:49;9.77;;;4.33;;
16242;SDS011;11719;51.052;6.982;2023-02-11T08:41:15;8.20;;;3.70;;
16242;SDS011;11719;51.052;6.982;2023-02-11T08:43:42;11.17;;;5.07;;
16242;SDS011;11719;51.052;6.982;2023-02-11T08:46:13;13.57;;;5.23;;
16242;SDS011;11719;51.052;6.982;2023-02-11T08:48:42;10.17;;;4.40;;
16242;SDS011;11719;51.052;6.982;2023-02-11T08:51:09;10.57;;;4.67;;
16242;SDS011;11719;51.052;6.982;2023-02-11T08:53:39;14.00;;;5.33;;
16242;SDS011;11719;51.052;6.982;2023-02-11T08:56:05;9.63;;;4.30;;
16242;SDS011;11719;51.052;6.982;2023-02-11T08:58:31;13.37;;;5.43;;
16242;SDS011;11719;51.052;6.982;2023-02-11T09:00:57;10.77;;;4.80;;
16242;SDS011;11719;51.052;6.982;2023-02-11T09:03:23;7.87;;;4.43;;
16242;SDS011;11719;51.052;6.982;2023-02-11T09:05:49;11.97;;;4.60;;
16242;SDS011;11719;51.052;6.982;2023-02-11T09:08:17;8.43;;;4.67;;
16242;SDS011;11719;51.052;6.982;2023-02-11T09:10:43;11.27;;;4.30;;
16242;SDS011;11719;51.052;6.982;2023-02-11T09:13:10;9.80;;;4.43;;
16242;SDS011;11719;51.052;6.982;2023-02-11T09:15:36;10.07;;;4.23;;
16242;SDS011;11719;51.052;6.982;2023-02-11T09:18:02;13.10;;;4.77;;
16242;SDS011;11719;51.052;6.982;2023-02-11T09:20:28;6.87;;;4.17;;
16242;SDS011;11719;51.052;6.982;2023-02-11T09:22:55;6.43;;;3.00;;
16242;SDS011;11719;51.052;6.982;2023-02-11T09:25:23;6.67;;;4.00;;
16242;SDS011;11719;51.052;6.982;2023-02-11T09:27:49;13.47;;;3.73;;
16242;SDS011;11719;51.052;6.982;2023-02-11T09:30:16;7.17;;;3.87;;
16242;SDS011;11719;51.052;6.982;2023-02-11T09:32:42;12.13;;;4.23;;
16242;SDS011;11719;51.052;6.982;2023-02-11T09:35:08;9.83;;;3.40;;
16242;SDS011;11719;51.052;6.982;2023-02-11T09:37:34;10.50;;;4.43;;
16242;SDS011;11719;51.052;6.982;2023-02-11T09:39:59;12.87;;;4.40;;
16242;SDS011;11719;51.052;6.982;2023-02-11T09:45:43;9.70;;;4.37;;
16242;SDS011;11719;51.052;6.982;2023-02-11T09:48:12;9.83;;;3.97;;
16242;SDS011;11719;51.052;6.982;2023-02-11T09:50:43;10.27;;;4.83;;
16242;SDS011;11719;51.052;6.982;2023-02-11T09:53:27;9.23;;;4.20;;
16242;SDS011;11719;51.052;6.982;2023-02-11T09:56:00;11.97;;;4.87;;
16242;SDS011;11719;51.052;6.982;2023-02-11T09:58:34;8.50;;;4.50;;
16242;SDS011;11719;51.052;6.982;2023-02-11T10:06:35;9.50;;;3.53;;
16242;SDS011;11719;51.052;6.982;2023-02-11T10:23:32;8.37;;;3.73;;
16242;SDS011;11719;51.052;6.982;2023-02-11T10:26:02;12.03;;;4.40;;
16242;SDS011;11719;51.052;6.982;2023-02-11T10:28:38;9.03;;;4.37;;
16242;SDS011;11719;51.052;6.982;2023-02-11T10:31:08;9.67;;;4.17;;
16242;SDS011;11719;51.052;6.982;2023-02-11T10:33:43;10.87;;;4.30;;
16242;SDS011;11719;51.052;6.982;2023-02-11T10:36:35;12.57;;;4.73;;
16242;SDS011;11719;51.052;6.982;2023-02-11T10:41:48;9.03;;;4.20;;
16242;SDS011;11719;51.052;6.982;2023-02-11T10:47:02;10.87;;;4.87;;
16242;SDS011;11719;51.052;6.982;2023-02-11T10:49:56;7.57;;;3.30;;
16242;SDS011;11719;51.052;6.982;2023-02-11T10:52:27;8.10;;;3.93;;
16242;SDS011;11719;51.052;6.982;2023-02-11T10:54:58;11.10;;;4.53;;
16242;SDS011;11719;51.052;6.982;2023-02-11T10:58:17;10.67;;;4.17;;
16242;SDS011;11719;51.052;6.982;2023-02-11T11:00:22;10.23;;;4.17;;
16242;SDS011;11719;51.052;6.982;2023-02-11T11:02:55;9.87;;;4.93;;
16242;SDS011;11719;51.052;6.982;2023-02-11T11:05:45;12.27;;;5.00;;
16242;SDS011;11719;51.052;6.982;2023-02-11T11:11:15;13.00;;;5.63;;
16242;SDS011;11719;51.052;6.982;2023-02-11T11:18:50;13.17;;;4.83;;
16242;SDS011;11719;51.052;6.982;2023-02-11T11:21:20;12.97;;;5.53;;
16242;SDS011;11719;51.052;6.982;2023-02-11T11:26:28;11.27;;;4.57;;
16242;SDS011;11719;51.052;6.982;2023-02-11T11:29:13;8.53;;;3.50;;
16242;SDS011;11719;51.052;6.982;2023-02-11T11:31:48;6.33;;;3.83;;
16242;SDS011;11719;51.052;6.982;2023-02-11T11:34:29;10.90;;;4.53;;
16242;SDS011;11719;51.052;6.982;2023-02-11T11:37:12;10.43;;;4.07;;
16242;SDS011;11719;51.052;6.982;2023-02-11T11:39:47;7.93;;;4.00;;
16242;SDS011;11719;51.052;6.982;2023-02-11T11:42:46;14.73;;;4.43;;
16242;SDS011;11719;51.052;6.982;2023-02-11T11:45:56;10.03;;;4.30;;
16242;SDS011;11719;51.052;6.982;2023-02-11T11:51:05;7.60;;;4.20;;
16242;SDS011;11719;51.052;6.982;2023-02-11T11:53:36;11.10;;;4.30;;
16242;SDS011;11719;51.052;6.982;2023-02-11T11:56:21;10.67;;;4.70;;
16242;SDS011;11719;51.052;6.982;2023-02-11T11:58:50;18.03;;;5.77;;
16242;SDS011;11719;51.052;6.982;2023-02-11T12:04:11;10.20;;;4.10;;
16242;SDS011;11719;51.052;6.982;2023-02-11T12:10:30;10.93;;;4.70;;
16242;SDS011;11719;51.052;6.982;2023-02-11T12:27:35;15.20;;;6.17;;
16242;SDS011;11719;51.052;6.982;2023-02-11T12:34:30;10.47;;;4.83;;
16242;SDS011;11719;51.052;6.982;2023-02-11T12:40:02;13.90;;;6.00;;
16242;SDS011;11719;51.052;6.982;2023-02-11T12:51:14;13.70;;;4.70;;
16242;SDS011;11719;51.052;6.982;2023-02-11T12:56:32;10.67;;;4.47;;
16242;SDS011;11719;51.052;6.982;2023-02-11T13:08:10;14.63;;;5.93;;
16242;SDS011;11719;51.052;6.982;2023-02-11T13:10:49;12.43;;;5.30;;
16242;SDS011;11719;51.052;6.982;2023-02-11T13:15:53;13.83;;;6.10;;
16242;SDS011;11719;51.052;6.982;2023-02-11T13:24:58;15.37;;;6.10;;
16242;SDS011;11719;51.052;6.982;2023-02-11T13:27:47;15.23;;;5.60;;
16242;SDS011;11719;51.052;6.982;2023-02-11T13:30:35;12.83;;;5.80;;
16242;SDS011;11719;51.052;6.982;2023-02-11T13:33:13;9.53;;;4.50;;
16242;SDS011;11719;51.052;6.982;2023-02-11T13:38:36;18.93;;;6.67;;
16242;SDS011;11719;51.052;6.982;2023-02-11T13:41:14;10.43;;;4.77;;
16242;SDS011;11719;51.052;6.982;2023-02-11T13:43:42;14.03;;;6.03;;
16242;SDS011;11719;51.052;6.982;2023-02-11T13:46:12;13.60;;;5.27;;
16242;SDS011;11719;51.052;6.982;2023-02-11T13:48:49;12.20;;;5.73;;
16242;SDS011;11719;51.052;6.982;2023-02-11T13:51:18;12.67;;;5.07;;
16242;SDS011;11719;51.052;6.982;2023-02-11T13:54:05;10.73;;;5.00;;
16242;SDS011;11719;51.052;6.982;2023-02-11T14:02:04;13.67;;;5.73;;
16242;SDS011;11719;51.052;6.982;2023-02-11T14:10:51;13.23;;;5.43;;
16242;SDS011;11719;51.052;6.982;2023-02-11T14:16:15;13.80;;;5.90;;
16242;SDS011;11719;51.052;6.982;2023-02-11T14:24:39;15.40;;;6.50;;
16242;SDS011;11719;51.052;6.982;2023-02-11T14:26:49;14.37;;;5.37;;
16242;SDS011;11719;51.052;6.982;2023-02-11T14:29:30;18.67;;;5.30;;
16242;SDS011;11719;51.052;6.982;2023-02-11T14:35:11;14.83;;;5.93;;
16242;SDS011;11719;51.052;6.982;2023-02-11T14:41:19;11.50;;;5.30;;
16242;SDS011;11719;51.052;6.982;2023-02-11T14:43:54;16.50;;;5.67;;
16242;SDS011;11719;51.052;6.982;2023-02-11T14:46:23;17.70;;;5.37;;
16242;SDS011;11719;51.052;6.982;2023-02-11T14:48:56;18.87;;;5.70;;
16242;SDS011;11719;51.052;6.982;2023-02-11T14:51:27;13.80;;;6.07;;
16242;SDS011;11719;51.052;6.982;2023-02-11T14:53:57;13.00;;;4.83;;
16242;SDS011;11719;51.052;6.982;2023-02-11T14:57:03;14.87;;;6.00;;
16242;SDS011;11719;51.052;6.982;2023-02-11T14:59:37;16.67;;;6.40;;
16242;SDS011;11719;51.052;6.982;2023-02-11T15:02:18;23.00;;;7.07;;
16242;SDS011;11719;51.052;6.982;2023-02-11T15:04:50;17.40;;;6.80;;
16242;SDS011;11719;51.052;6.982;2023-02-11T15:07:16;20.77;;;7.23;;
16242;SDS011;11719;51.052;6.982;2023-02-11T15:09:49;11.83;;;4.67;;
16242;SDS011;11719;51.052;6.982;2023-02-11T15:12:18;15.57;;;6.13;;
16242;SDS011;11719;51.052;6.982;2023-02-11T15:14:49;12.73;;;6.30;;
16242;SDS011;11719;51.052;6.982;2023-02-11T15:17:24;17.80;;;5.93;;
16242;SDS011;11719;51.052;6.982;2023-02-11T15:19:54;15.73;;;4.90;;
16242;SDS011;11719;51.052;6.982;2023-02-11T15:24:57;11.63;;;5.37;;
16242;SDS011;11719;51.052;6.982;2023-02-11T15:27:38;12.40;;;6.57;;
16242;SDS011;11719;51.052;6.982;2023-02-11T15:32:52;13.43;;;6.03;;
16242;SDS011;11719;51.052;6.982;2023-02-11T15:35:28;15.43;;;5.97;;
16242;SDS011;11719;51.052;6.982;2023-02-11T15:38:01;11.97;;;5.30;;
16242;SDS011;11719;51.052;6.982;2023-02-11T15:40:29;15.67;;;5.90;;
16242;SDS011;11719;51.052;6.982;2023-02-11T15:45:33;13.33;;;5.67;;
16242;SDS011;11719;51.052;6.982;2023-02-11T15:48:16;12.60;;;4.53;;
16242;SDS011;11719;51.052;6.982;2023-02-11T15:50:53;17.13;;;6.40;;
16242;SDS011;11719;51.052;6.982;2023-02-11T15:53:25;14.40;;;5.80;;
16242;SDS011;11719;51.052;6.982;2023-02-11T15:58:42;12.77;;;5.17;;
16242;SDS011;11719;51.052;6.982;2023-02-11T16:01:11;19.33;;;6.67;;
16242;SDS011;11719;51.052;6.982;2023-02-11T16:03:37;15.97;;;5.97;;
16242;SDS011;11719;51.052;6.982;2023-02-11T16:13:58;12.93;;;5.83;;
16242;SDS011;11719;51.052;6.982;2023-02-11T16:16:45;17.23;;;6.03;;
16242;SDS011;11719;51.052;6.982;2023-02-11T16:19:18;16.17;;;6.03;;
16242;SDS011;11719;51.052;6.982;2023-02-11T16:21:45;14.00;;;5.23;;
16242;SDS011;11719;51.052;6.982;2023-02-11T16:26:54;18.73;;;6.70;;
16242;SDS011;11719;51.052;6.982;2023-02-11T16:29:28;13.73;;;5.83;;
16242;SDS011;11719;51.052;6.982;2023-02-11T16:34:56;15.97;;;6.37;;
16242;SDS011;11719;51.052;6.982;2023-02-11T16:37:24;17.73;;;7.20;;
16242;SDS011;11719;51.052;6.982;2023-02-11T16:39:54;10.97;;;4.67;;
16242;SDS011;11719;51.052;6.982;2023-02-11T16:42:20;18.60;;;6.60;;
16242;SDS011;11719;51.052;6.982;2023-02-11T16:44:47;14.03;;;5.53;;
16242;SDS011;11719;51.052;6.982;2023-02-11T16:47:21;15.33;;;6.90;;
16242;SDS011;11719;51.052;6.982;2023-02-11T16:49:51;17.73;;;6.63;;
16242;SDS011;11719;51.052;6.982;2023-02-11T16:52:18;14.00;;;5.73;;
16242;SDS011;11719;51.052;6.982;2023-02-11T16:54:45;16.63;;;6.03;;
16242;SDS011;11719;51.052;6.982;2023-02-11T16:59:43;19.40;;;6.93;;
16242;SDS011;11719;51.052;6.982;2023-02-11T17:02:29;18.03;;;6.73;;
16242;SDS011;11719;51.052;6.982;2023-02-11T17:04:59;15.50;;;6.10;;
16242;SDS011;11719;51.052;6.982;2023-02-11T17:07:31;13.87;;;5.90;;
16242;SDS011;11719;51.052;6.982;2023-02-11T17:09:57;18.00;;;7.83;;
16242;SDS011;11719;51.052;6.982;2023-02-11T17:12:23;19.23;;;7.60;;
16242;SDS011;11719;51.052;6.982;2023-02-11T17:14:50;17.80;;;7.73;;
16242;SDS011;11719;51.052;6.982;2023-02-11T17:17:16;16.57;;;6.37;;
16242;SDS011;11719;51.052;6.982;2023-02-11T17:19:42;14.27;;;6.63;;
16242;SDS011;11719;51.052;6.982;2023-02-11T17:22:09;20.73;;;8.07;;
16242;SDS011;11719;51.052;6.982;2023-02-11T17:24:35;19.23;;;7.03;;
16242;SDS011;11719;51.052;6.982;2023-02-11T17:27:01;16.53;;;6.40;;
16242;SDS011;11719;51.052;6.982;2023-02-11T17:29:27;16.77;;;6.47;;
16242;SDS011;11719;51.052;6.982;2023-02-11T17:31:53;15.17;;;6.83;;
16242;SDS011;11719;51.052;6.982;2023-02-11T17:34:19;19.30;;;7.70;;
16242;SDS011;11719;51.052;6.982;2023-02-11T17:36:46;14.80;;;6.23;;
16242;SDS011;11719;51.052;6.982;2023-02-11T17:39:12;15.40;;;6.27;;
16242;SDS011;11719;51.052;6.982;2023-02-11T17:41:38;17.33;;;7.50;;
16242;SDS011;11719;51.052;6.982;2023-02-11T17:44:06;18.87;;;6.70;;
16242;SDS011;11719;51.052;6.982;2023-02-11T17:46:33;14.97;;;6.80;;
16242;SDS011;11719;51.052;6.982;2023-02-11T17:49:00;16.00;;;7.27;;
16242;SDS011;11719;51.052;6.982;2023-02-11T17:51:31;14.07;;;6.67;;
16242;SDS011;11719;51.052;6.982;2023-02-11T17:54:01;13.90;;;7.17;;
16242;SDS011;11719;51.052;6.982;2023-02-11T17:56:31;17.77;;;6.43;;
16242;SDS011;11719;51.052;6.982;2023-02-11T17:58:59;16.60;;;6.60;;
16242;SDS011;11719;51.052;6.982;2023-02-11T18:01:29;15.80;;;7.43;;
16242;SDS011;11719;51.052;6.982;2023-02-11T18:03:56;16.07;;;6.97;;
16242;SDS011;11719;51.052;6.982;2023-02-11T18:06:22;9.17;;;4.90;;
16242;SDS011;11719;51.052;6.982;2023-02-11T18:08:48;20.37;;;8.17;;
16242;SDS011;11719;51.052;6.982;2023-02-11T18:11:14;23.83;;;6.77;;
16242;SDS011;11719;51.052;6.982;2023-02-11T18:13:41;15.73;;;6.70;;
16242;SDS011;11719;51.052;6.982;2023-02-11T18:16:08;16.10;;;6.63;;
16242;SDS011;11719;51.052;6.982;2023-02-11T18:18:39;16.13;;;6.03;;
16242;SDS011;11719;51.052;6.982;2023-02-11T18:21:06;17.60;;;6.80;;